Dubrovnik, Croatia

21. јануар 2019, 19:01 CET (GMT +0100)
Cilipi

Време Архивски подаци за LDDU - јануар, 2019

Change the Weather History Date:

Субота, јануар 12, 2019

  Actual Average (LYTV) Record (LYTV)
Temperature  
Средња температура 38 °F -  
Максимална температура 45 °F 55 °F 132 °F (2003)
Минимална температура 32 °F 35 °F 17 °F (2017)
Degree Days  
Потреба за загревањем 26    
Moisture  
Тачка росе 16 °F    
Average Humidity 38    
Maximum Humidity 48    
Minimum Humidity 14    
Падавине  
Падавине 0.00 инч - - ()
Ваздушни притисак на нивоу мора  
Ваздушни притисак на нивоу мора 29.94 инч    
Ветар  
Брзина ветра 22 mph ()    
Највећа брзина ветра 29 mph    
Max Gust Speed 43 mph    
Видљивост 19.0 миља    
Догађаји      
Averages and records for this station are not official NWS values.
T = Trace of Precipitation, MM = Missing Value Source: Averaged Metar Reports

Daily Weather History Graph

Daily Weather History Graph

Search for Another Location

Airport or City:

Астрономија

Jan. 12, 2019 Излазак Залазак
Тренутно време 07:15 CET 16:34 CET
Цивилни сумрак 06:44 CET 17:06 CET
Наутички сумрак 06:09 CET 17:41 CET
Астрономски сумрак 05:35 CET 18:15 CET
Месец 10:45 CET (1/12) 22:43 CET (1/12)
Трајање видљиве светлости 10h 22m
Обданица
9h 19m
Прва четвртина, 33% of the Moon is Illuminated
јан 12
Прва четвртина
јан 14
Прва четврт
јан 21
Пун
јан 27
Последња четврт
феб 4
Млад

Hourly Weather History & Observations

Време (CET) Темп. Субјективни осећај Тачка росе Влажност ваздуха Притисак Видљивост Wind Dir Брзина ветра Брзина удара ветра Precip Догађаји Услови
12:00 AM 35.6 °F 23.4 °F 15.8 °F 44% 29.98 инч - Северни 25.3 mph - N/A   Ведро
12:30 AM 35.6 °F 23.7 °F 15.8 °F 44% 29.98 инч - ССИ 24.2 mph - N/A   Ведро
1:00 AM 35 °F - 16 °F 32% 30.01 инч 31 mi ССИ 26.8 mph - -  
1:00 AM 35.6 °F 23.2 °F 15.8 °F 44% 29.98 инч - Северни 26.5 mph - N/A   Ведро
1:30 AM 35.6 °F 23.4 °F 15.8 °F 44% 29.98 инч - ССИ 25.3 mph - N/A   Ведро
2:00 AM 33.8 °F 21.3 °F 15.8 °F 48% 29.98 инч - ССИ 24.2 mph - N/A   Ведро
2:30 AM 33.8 °F 21.9 °F 15.8 °F 48% 29.98 инч - ССИ 21.9 mph 33.4 mph N/A   Ведро
3:00 AM 33.8 °F 21.9 °F 15.8 °F 48% 29.98 инч - ССИ 21.9 mph - N/A   Ведро
3:30 AM 33.8 °F 21.6 °F 15.8 °F 48% 29.98 инч - ССИ 23.0 mph - N/A   Ведро
4:00 AM 34 °F - 15 °F 32% 30.00 инч 31 mi ССИ 20.1 mph - -  
4:00 AM 33.8 °F 22.2 °F 15.8 °F 48% 29.98 инч - ССИ 20.7 mph - N/A   Ведро
4:30 AM 33.8 °F 22.2 °F 15.8 °F 48% 29.95 инч - ССИ 20.7 mph - N/A   Ведро
5:00 AM 33.8 °F 23.2 °F 14.0 °F 44% 29.95 инч - ССИ 17.3 mph - N/A   Ведро
5:30 AM 33.8 °F 21.9 °F 14.0 °F 44% 29.95 инч - ССИ 21.9 mph - N/A   Ведро
6:00 AM 33.8 °F 22.5 °F 14.0 °F 44% 29.95 инч - ССИ 19.6 mph - N/A   Ведро
6:30 AM 33.8 °F 22.2 °F 14.0 °F 44% 29.95 инч - Северни 20.7 mph - N/A   Ведро
7:00 AM 33 °F - 14 °F 31% 29.99 инч 31 mi Северни 17.9 mph - -  
7:00 AM 33.8 °F 22.5 °F 14.0 °F 44% 29.95 инч - Северни 19.6 mph - N/A   Ведро
7:30 AM 32.0 °F 19.2 °F 14.0 °F 48% 29.95 инч - ССИ 23.0 mph - N/A   Ведро
8:00 AM 33.8 °F 21.0 °F 14.0 °F 44% 29.95 инч - ССИ 25.3 mph - N/A   Ведро
8:30 AM 33.8 °F 21.0 °F 14.0 °F 44% 29.95 инч - ССИ 25.3 mph - N/A   Ведро
9:00 AM 35.6 °F 24.2 °F 14.0 °F 41% 29.95 инч - Северни 21.9 mph 33.4 mph N/A   Ведро
9:30 AM 35.6 °F 23.2 °F 14.0 °F 41% 29.95 инч - ССИ 26.5 mph - N/A   Ведро
10:00 AM 36 °F - 14 °F 26% 29.99 инч 31 mi ССИ 24.6 mph - -  
10:00 AM 37.4 °F 25.9 °F 14.0 °F 38% 29.95 инч - ССИ 25.3 mph 36.8 mph N/A   Ведро
10:30 AM 39.2 °F 29.0 °F 14.0 °F 36% 29.95 инч - ССИ 21.9 mph - N/A   Ведро
11:00 AM 39.2 °F 30.5 °F 12.2 °F 33% 29.92 инч - СИ 16.1 mph - N/A   Ведро
11:30 AM 41.0 °F 31.9 °F 10.4 °F 29% 29.92 инч - СИ 19.6 mph - N/A   Ведро
12:00 PM 42.8 °F 32.9 °F 10.4 °F 27% 29.92 инч - ССИ 26.5 mph - N/A   Ведро
12:30 PM 42.8 °F 32.7 °F 10.4 °F 27% 29.89 инч - ССИ 27.6 mph - N/A   Ведро
1:00 PM 43 °F - 11 °F 14% 29.93 инч 19 mi ССИ 24.6 mph - -   Ведро
1:00 PM 44.6 °F 35.1 °F 10.4 °F 25% 29.89 инч - ССИ 27.6 mph 40.3 mph N/A   Ведро
1:30 PM 44.6 °F 35.3 °F 12.2 °F 27% 29.89 инч - СИ 26.5 mph - N/A   Ведро
2:00 PM 44.6 °F 35.5 °F 14.0 °F 29% 29.89 инч - ССИ 25.3 mph - N/A   Ведро
2:30 PM 44.6 °F 35.1 °F 17.6 °F 34% 29.89 инч - ССИ 27.6 mph 41.4 mph N/A   Ведро
3:00 PM 44.6 °F 35.5 °F 19.4 °F 37% 29.89 инч - ССИ 25.3 mph - N/A   Ведро
3:30 PM 44.6 °F 35.5 °F 21.2 °F 39% 29.89 инч - СИ 25.3 mph 41.4 mph N/A   Ведро
4:00 PM 45 °F - 21 °F 25% 29.91 инч 19 mi ССИ 24.6 mph - -   Ведро
4:00 PM 44.6 °F 35.5 °F 21.2 °F 39% 29.89 инч - ССИ 25.3 mph 39.1 mph N/A   Ведро
4:30 PM 44.6 °F 35.5 °F 21.2 °F 39% 29.89 инч - ССИ 25.3 mph 36.8 mph N/A   Ведро
5:00 PM 44.6 °F 35.1 °F 21.2 °F 39% 29.89 инч - ССИ 27.6 mph 39.1 mph N/A   Ведро
5:30 PM 42.8 °F 32.5 °F 21.2 °F 42% 29.89 инч - ССИ 28.8 mph 40.3 mph N/A   Ведро
6:00 PM 42.8 °F 32.5 °F 21.2 °F 42% 29.89 инч - ССИ 28.8 mph - N/A   Ведро
6:30 PM 42.8 °F 32.7 °F 21.2 °F 42% 29.92 инч - ССИ 27.6 mph 42.6 mph N/A   Ведро
7:00 PM 42 °F - 21 °F 29% 29.94 инч 19 mi ССИ 26.8 mph - -  
7:00 PM 42.8 °F 32.7 °F 21.2 °F 42% 29.92 инч - ССИ 27.6 mph - N/A   Ведро
7:30 PM 42.8 °F 32.5 °F 19.4 °F 39% 29.92 инч - ССИ 28.8 mph - N/A   Ведро
8:00 PM 42.8 °F 32.9 °F 19.4 °F 39% 29.92 инч - ССИ 26.5 mph - N/A   Ведро
8:30 PM 42.8 °F 32.9 °F 19.4 °F 39% 29.92 инч - ССИ 26.5 mph 39.1 mph N/A   Ведро
9:00 PM 42.8 °F 32.9 °F 19.4 °F 39% 29.92 инч - ССИ 26.5 mph - N/A   Ведро
9:30 PM 42.8 °F 33.1 °F 19.4 °F 39% 29.92 инч - ССИ 25.3 mph - N/A   Ведро
10:00 PM 43 °F - 19 °F 26% 29.94 инч 19 mi ССИ 24.6 mph - -  
10:00 PM 42.8 °F 32.9 °F 19.4 °F 39% 29.92 инч - ССИ 26.5 mph - N/A   Ведро
10:30 PM 42.8 °F 35.4 °F 19.4 °F 39% 29.92 инч - Северни 15.0 mph - N/A   Ведро
11:00 PM 42.8 °F 34.5 °F 19.4 °F 39% 29.92 инч - Северни 18.4 mph - N/A   Ведро
11:30 PM 41.0 °F 33.1 °F 19.4 °F 42% 29.89 инч - ССИ 15.0 mph - N/A   Ведро